Time;durP1;ratioP1;P1;durP2;ratioP2;P2;SDS_P1;SDS_P2;PMS_P1;PMS_P2;Temp;Humidity;BMP_temperature;BMP_pressure;BME280_temperature;BME280_humidity;BME280_pressure;Samples;Min_cycle;Max_cycle;Signal;HPM_P1;HPM_P2
2022/07/18 00:01:41;;;;;;;7.65;4.78;;;;;;;26.46;58.02;98958.03;5012940;28;20025;-64
2022/07/18 00:04:06;;;;;;;8.70;5.03;;;;;;;26.48;58.20;98991.38;4996978;28;20461;-65
2022/07/18 00:06:32;;;;;;;5.80;4.22;;;;;;;26.57;57.89;98983.00;5013904;28;20180;-64
2022/07/18 00:08:57;;;;;;;6.82;4.90;;;;;;;26.47;58.60;98976.44;4997379;28;20025;-66
2022/07/18 00:11:23;;;;;;;9.05;4.63;;;;;;;26.17;58.13;98944.72;4997364;28;20060;-64
2022/07/18 00:13:51;;;;;;;7.82;4.82;;;;;;;26.28;58.01;98951.88;4992299;28;20120;-64
2022/07/18 00:16:16;;;;;;;8.23;4.32;;;;;;;26.32;58.07;98965.50;4995728;28;20025;-65
2022/07/18 00:18:42;;;;;;;6.53;4.82;;;;;;;26.47;57.90;98989.78;4998814;28;20426;-65
2022/07/18 00:21:07;;;;;;;10.70;4.88;;;;;;;26.28;58.54;98985.69;5020316;28;20492;-64
2022/07/18 00:23:33;;;;;;;8.00;5.00;;;;;;;26.25;58.47;98989.66;5012478;28;20740;-64
2022/07/18 00:25:59;;;;;;;7.63;4.90;;;;;;;26.27;58.42;98992.88;5007471;28;20040;-64
2022/07/18 00:28:24;;;;;;;6.82;5.20;;;;;;;26.30;58.57;98993.44;4997374;28;20465;-65
2022/07/18 00:30:50;;;;;;;6.80;4.80;;;;;;;26.39;58.20;98994.69;5010594;28;20028;-65
2022/07/18 00:33:15;;;;;;;7.80;4.72;;;;;;;26.30;58.49;98986.25;5015698;28;20103;-64
2022/07/18 00:35:40;;;;;;;7.10;4.65;;;;;;;26.30;58.19;98990.78;5015084;28;20112;-64
2022/07/18 00:38:06;;;;;;;7.70;5.07;;;;;;;26.32;58.31;98988.69;4996199;28;20469;-64
2022/07/18 00:40:32;;;;;;;6.60;5.10;;;;;;;26.16;58.78;98999.06;4997927;28;20021;-65
2022/07/18 00:42:58;;;;;;;7.25;4.85;;;;;;;26.15;58.89;99005.44;4999077;28;20021;-65
2022/07/18 00:45:23;;;;;;;8.55;4.68;;;;;;;26.24;58.62;98996.00;5000233;28;20046;-65
2022/07/18 00:47:51;;;;;;;7.35;5.00;;;;;;;26.04;58.84;98969.78;5008167;28;20032;-65
2022/07/18 00:50:17;;;;;;;6.88;4.95;;;;;;;26.23;58.55;99007.75;5017220;28;20042;-64
2022/07/18 00:52:43;;;;;;;6.40;4.70;;;;;;;26.17;59.02;99006.00;5017818;28;20190;-65
2022/07/18 00:55:08;;;;;;;6.60;4.93;;;;;;;25.83;59.35;98981.88;5016585;28;20108;-65
2022/07/18 00:57:34;;;;;;;6.82;4.93;;;;;;;26.14;59.10;99009.16;5015402;28;20137;-65
2022/07/18 01:02:44;;;;;;;10.93;5.20;;;;;;;25.97;60.70;99010.94;5019513;28;20072;-65
2022/07/18 01:05:09;;;;;;;8.98;5.22;;;;;;;25.93;60.26;99009.78;5015011;28;20033;-65
2022/07/18 01:07:36;;;;;;;9.60;5.05;;;;;;;25.99;60.23;99017.63;5017068;28;20172;-65
2022/07/18 01:10:03;;;;;;;8.20;4.95;;;;;;;25.89;61.38;99012.88;5018652;28;20065;-65
2022/07/18 01:12:29;;;;;;;12.07;5.28;;;;;;;25.89;61.56;99007.56;5020355;28;20033;-64
2022/07/18 01:14:56;;;;;;;7.93;5.68;;;;;;;25.86;61.04;99009.88;5015188;28;20064;-65
2022/07/18 01:17:22;;;;;;;7.60;5.20;;;;;;;25.84;60.48;99007.44;5019293;28;20018;-66
2022/07/18 01:19:47;;;;;;;10.18;5.35;;;;;;;25.73;60.64;99016.28;5021529;28;20025;-65
2022/07/18 01:22:15;;;;;;;6.65;5.00;;;;;;;25.84;60.68;99017.31;5019015;28;20033;-65
2022/07/18 01:24:41;;;;;;;8.90;4.97;;;;;;;25.79;60.61;99010.03;5020637;28;20068;-66
2022/07/18 01:27:06;;;;;;;8.68;4.95;;;;;;;25.90;60.55;99016.34;5020205;28;20049;-65
2022/07/18 01:29:32;;;;;;;8.15;5.40;;;;;;;25.93;60.32;99018.59;5021978;28;20025;-65
2022/07/18 01:32:04;;;;;;;7.28;4.90;;;;;;;25.89;59.88;99014.75;5021652;28;20018;-63
2022/07/18 01:34:29;;;;;;;5.95;4.85;;;;;;;25.84;60.21;99006.66;5018247;28;20036;-65
2022/07/18 01:36:55;;;;;;;7.28;5.00;;;;;;;25.81;60.62;99023.09;5019185;28;20033;-65
2022/07/18 01:39:20;;;;;;;7.13;5.28;;;;;;;25.85;60.61;99021.59;5017049;28;20033;-64
2022/07/18 01:41:45;;;;;;;7.15;5.28;;;;;;;25.84;60.55;99007.44;5022853;28;20025;-64
2022/07/18 01:44:11;;;;;;;7.72;5.30;;;;;;;25.80;60.80;99019.63;5015536;28;20022;-65
2022/07/18 01:46:36;;;;;;;7.22;5.15;;;;;;;25.79;60.96;99019.84;5016314;28;20037;-64
2022/07/18 01:49:02;;;;;;;9.07;5.13;;;;;;;25.66;61.29;99012.91;5019456;28;20080;-65
2022/07/18 01:51:27;;;;;;;8.80;5.68;;;;;;;25.67;61.14;98999.38;5019368;28;20029;-65
2022/07/18 01:53:58;;;;;;;6.85;5.45;;;;;;;25.60;61.26;98998.69;5019307;28;20108;-65
2022/07/18 01:56:23;;;;;;;7.75;5.43;;;;;;;25.69;61.52;99020.44;5018414;28;20017;-65
2022/07/18 01:58:49;;;;;;;7.72;5.40;;;;;;;25.42;61.42;98993.50;5035727;28;20036;-65
2022/07/18 02:01:14;;;;;;;7.03;5.10;;;;;;;25.65;60.79;99025.44;5021601;28;20151;-64
2022/07/18 02:03:40;;;;;;;6.45;4.90;;;;;;;25.75;60.62;99027.50;5020928;28;20025;-65
2022/07/18 02:06:05;;;;;;;6.60;5.40;;;;;;;25.78;60.94;99020.91;5018348;28;20037;-64
2022/07/18 02:08:30;;;;;;;6.43;4.80;;;;;;;25.79;60.48;99019.84;5020214;28;20029;-64
2022/07/18 02:10:56;;;;;;;6.00;4.47;;;;;;;25.51;60.34;98984.91;5016722;28;20060;-62
2022/07/18 02:13:24;;;;;;;6.97;5.03;;;;;;;25.84;60.09;99012.78;5020150;28;20460;-63
2022/07/18 02:15:49;;;;;;;8.27;5.00;;;;;;;25.79;60.54;99014.53;5018025;28;20104;-63
2022/07/18 02:18:14;;;;;;;6.85;5.00;;;;;;;25.78;60.33;99021.72;5014348;28;20496;-63
2022/07/18 02:20:40;;;;;;;6.57;4.65;;;;;;;25.73;60.33;99020.78;5018752;28;20021;-63
2022/07/18 02:23:07;;;;;;;6.18;4.97;;;;;;;25.56;61.19;99023.38;5020095;28;20185;-65
2022/07/18 02:25:33;;;;;;;6.68;4.93;;;;;;;25.61;60.94;99018.13;5019980;28;20059;-63
2022/07/18 02:27:59;;;;;;;6.93;5.00;;;;;;;25.70;60.47;99011.41;5016908;28;20043;-63
2022/07/18 02:30:24;;;;;;;7.45;5.00;;;;;;;25.75;60.52;99019.50;5019228;28;20034;-63
2022/07/18 02:32:50;;;;;;;7.72;5.28;;;;;;;25.65;60.60;99013.97;5019549;28;20034;-66
2022/07/18 02:35:15;;;;;;;6.63;5.15;;;;;;;25.49;60.70;99016.28;5015361;28;20056;-64
2022/07/18 02:37:41;;;;;;;8.45;4.65;;;;;;;25.47;61.04;98993.63;5016686;28;20029;-65
2022/07/18 02:40:08;;;;;;;6.70;4.82;;;;;;;25.44;60.54;98981.56;5020378;28;20025;-67
2022/07/18 02:42:33;;;;;;;6.18;4.57;;;;;;;25.51;60.32;98984.91;5024018;28;20037;-67
2022/07/18 02:44:59;;;;;;;6.38;4.68;;;;;;;25.68;60.24;99018.81;5020108;28;20339;-64
2022/07/18 02:47:24;;;;;;;7.68;4.95;;;;;;;25.58;60.70;99011.44;5021169;28;20109;-64
2022/07/18 02:49:50;;;;;;;7.18;4.70;;;;;;;25.59;60.70;99030.88;5017602;28;20037;-65
2022/07/18 02:52:15;;;;;;;7.80;5.40;;;;;;;25.57;61.84;99027.63;5020176;28;20136;-64
2022/07/18 02:54:40;;;;;;;8.77;5.32;;;;;;;25.65;63.25;99035.28;5020403;28;20032;-67
2022/07/18 02:57:06;;;;;;;7.10;4.93;;;;;;;25.57;65.12;99020.44;5017533;28;20021;-64
2022/07/18 02:59:32;;;;;;;7.68;5.43;;;;;;;25.52;65.95;99029.16;5018802;28;20396;-66
2022/07/18 03:01:57;;;;;;;7.88;5.63;;;;;;;25.43;65.33;99019.91;5018496;28;20495;-64
2022/07/18 03:04:23;;;;;;;7.50;5.68;;;;;;;25.49;64.46;99016.28;5018238;28;20025;-65
2022/07/18 03:06:49;;;;;;;7.57;5.28;;;;;;;25.42;64.04;98991.66;5016754;28;20123;-66
2022/07/18 03:09:16;;;;;;;7.00;5.35;;;;;;;25.57;64.66;99024.97;5020729;28;20670;-65
2022/07/18 03:11:42;;;;;;;7.35;5.15;;;;;;;25.40;64.58;98988.41;5021930;28;20053;-64
2022/07/18 03:14:07;;;;;;;8.15;5.07;;;;;;;25.44;64.51;99002.88;5020152;28;20044;-64
2022/07/18 03:16:33;;;;;;;7.63;5.20;;;;;;;25.47;65.28;99021.03;5016243;28;20036;-66
2022/07/18 03:18:59;;;;;;;9.35;5.75;;;;;;;25.51;64.79;99026.72;5022010;28;20025;-66
2022/07/18 03:21:24;;;;;;;8.45;5.78;;;;;;;25.47;64.93;99026.38;5017468;28;20037;-65
2022/07/18 03:23:50;;;;;;;8.20;5.40;;;;;;;25.26;65.76;99017.13;5019746;28;20018;-65
2022/07/18 03:26:15;;;;;;;8.00;5.53;;;;;;;25.34;64.78;99023.94;5024419;28;20090;-66
2022/07/18 03:28:41;;;;;;;6.85;5.00;;;;;;;25.30;64.75;99025.44;5020211;28;20631;-65
2022/07/18 03:31:06;;;;;;;6.82;5.30;;;;;;;25.33;65.34;99027.63;5005468;28;20029;-65
2022/07/18 03:33:32;;;;;;;9.25;5.47;;;;;;;25.41;65.09;99021.16;5054217;28;20021;-65
2022/07/18 03:35:57;;;;;;;8.52;5.80;;;;;;;25.51;65.04;99024.06;5001744;28;20026;-65
2022/07/18 03:38:23;;;;;;;7.72;5.78;;;;;;;25.40;65.01;98992.94;5017527;28;20091;-65
2022/07/18 03:40:48;;;;;;;6.50;5.40;;;;;;;25.57;65.30;99022.31;5021179;28;20030;-65
2022/07/18 03:43:13;;;;;;;7.45;5.85;;;;;;;25.59;65.57;99022.88;5019086;28;20022;-65
2022/07/18 03:45:39;;;;;;;7.32;5.22;;;;;;;25.57;65.55;99027.63;5019544;28;20022;-64
2022/07/18 03:48:04;;;;;;;6.70;5.45;;;;;;;25.29;65.47;98994.53;5016046;28;20369;-64
2022/07/18 03:50:30;;;;;;;7.07;5.50;;;;;;;25.41;65.63;99019.31;5017270;28;20025;-64
2022/07/18 03:52:55;;;;;;;8.00;5.15;;;;;;;25.56;65.71;99039.34;5019961;28;20026;-65
2022/07/18 03:55:21;;;;;;;7.28;5.00;;;;;;;25.43;65.77;99027.06;5016220;28;20071;-65
2022/07/18 03:57:46;;;;;;;7.10;5.82;;;;;;;25.27;65.24;98992.09;5020448;28;20021;-65
2022/07/18 04:00:13;;;;;;;9.32;5.20;;;;;;;25.55;65.59;99030.53;5016800;28;20100;-65
2022/07/18 04:02:43;;;;;;;7.40;5.55;;;;;;;25.57;65.69;99031.09;5020832;28;22313;-65
2022/07/18 04:05:09;;;;;;;8.70;5.40;;;;;;;25.47;65.87;99026.38;5018052;28;20030;-65
2022/07/18 04:07:35;;;;;;;6.10;4.97;;;;;;;25.17;66.04;98996.34;5018421;28;20041;-65
2022/07/18 04:10:00;;;;;;;7.70;5.55;;;;;;;25.39;65.60;99029.38;5020584;28;20021;-65
2022/07/18 04:12:26;;;;;;;6.93;5.18;;;;;;;25.40;66.84;99031.00;5018981;28;20087;-65
2022/07/18 04:14:51;;;;;;;6.50;5.43;;;;;;;25.18;66.26;99008.63;5010426;28;20091;-64
2022/07/18 04:17:17;;;;;;;8.18;4.90;;;;;;;25.21;66.08;99010.81;5014885;28;20690;-64
2022/07/18 04:19:42;;;;;;;8.95;5.78;;;;;;;25.37;65.57;99039.44;5020208;28;20064;-64
2022/07/18 04:22:07;;;;;;;7.63;5.90;;;;;;;25.12;65.47;99019.16;5019413;28;20252;-64
2022/07/18 04:24:33;;;;;;;8.23;5.68;;;;;;;25.01;66.21;99003.16;5018663;28;21153;-64
2022/07/18 04:26:59;;;;;;;6.75;5.22;;;;;;;25.19;65.95;99043.00;5020881;28;20031;-65
2022/07/18 04:29:24;;;;;;;6.53;5.20;;;;;;;25.23;65.72;99032.72;5019725;28;20801;-65
2022/07/18 04:31:50;;;;;;;8.93;5.72;;;;;;;25.27;65.95;99048.00;5022746;28;20030;-65
2022/07/18 04:34:15;;;;;;;7.70;5.65;;;;;;;25.25;66.07;99049.28;5017900;28;20648;-66
2022/07/18 04:36:41;;;;;;;6.70;5.47;;;;;;;25.17;66.60;99049.56;5027528;28;20025;-65
2022/07/18 04:39:06;;;;;;;7.22;5.60;;;;;;;25.14;66.49;99041.00;5019023;28;20025;-67
2022/07/18 04:41:32;;;;;;;7.75;5.40;;;;;;;24.88;67.45;99018.31;5011638;28;20021;-65
2022/07/18 04:43:57;;;;;;;8.82;5.45;;;;;;;24.92;67.37;99013.34;5018975;28;20033;-66
2022/07/18 04:46:23;;;;;;;7.60;5.70;;;;;;;25.12;67.04;99043.09;5018203;28;20817;-64
2022/07/18 04:48:48;;;;;;;8.02;5.80;;;;;;;25.13;66.69;99047.38;5015473;28;20524;-66
2022/07/18 04:51:14;;;;;;;7.20;5.53;;;;;;;25.25;66.77;99051.94;5024246;28;20033;-65
2022/07/18 04:53:39;;;;;;;7.75;5.22;;;;;;;25.17;66.42;99046.91;5022893;28;20052;-65
2022/07/18 04:56:05;;;;;;;7.97;5.15;;;;;;;25.20;66.14;99022.50;5004665;28;20338;-66
2022/07/18 04:58:30;;;;;;;7.88;5.40;;;;;;;25.42;65.96;99052.84;5026487;28;20068;-65
2022/07/18 05:00:56;;;;;;;8.20;5.10;;;;;;;25.46;66.49;99054.03;5021824;28;20044;-67
2022/07/18 05:03:21;;;;;;;7.75;5.00;;;;;;;25.26;66.34;99017.13;5019110;28;20033;-65
2022/07/18 05:05:47;;;;;;;6.65;5.25;;;;;;;25.55;66.40;99048.34;5018503;28;20033;-67
2022/07/18 05:08:13;;;;;;;8.98;5.47;;;;;;;25.56;66.69;99050.00;5023962;28;20107;-66
2022/07/18 05:10:39;;;;;;;8.90;5.40;;;;;;;25.52;66.92;99060.28;5001892;28;20384;-67
2022/07/18 05:13:04;;;;;;;7.05;5.53;;;;;;;25.30;66.79;99031.56;5005605;28;20033;-66
2022/07/18 05:15:30;;;;;;;8.07;5.80;;;;;;;25.50;67.00;99057.84;5019217;28;20478;-66
2022/07/18 05:17:55;;;;;;;11.00;5.63;;;;;;;25.59;67.20;99057.50;5003358;28;20814;-65
2022/07/18 05:20:23;;;;;;;8.57;5.40;;;;;;;25.55;66.90;99053.69;5022868;28;20210;-65
2022/07/18 05:22:49;;;;;;;8.43;5.90;;;;;;;25.42;66.81;99036.88;5019763;28;20025;-66
2022/07/18 05:25:14;;;;;;;7.20;5.60;;;;;;;25.56;67.18;99065.97;5000696;28;20026;-68
2022/07/18 05:27:41;;;;;;;9.90;5.65;;;;;;;25.32;66.95;99028.69;5021684;28;20025;-66
2022/07/18 05:30:09;;;;;;;8.60;5.68;;;;;;;25.55;66.35;99051.81;5022285;28;20014;-67
2022/07/18 05:32:35;;;;;;;9.45;5.45;;;;;;;25.59;66.33;99063.66;5021894;28;20025;-66
2022/07/18 05:35:00;;;;;;;6.78;5.57;;;;;;;25.59;66.78;99066.31;5005665;28;20014;-67
2022/07/18 05:37:26;;;;;;;8.15;5.43;;;;;;;25.58;66.85;99061.22;5027279;28;20072;-64
2022/07/18 05:39:51;;;;;;;6.78;5.13;;;;;;;25.53;65.72;99053.91;5019086;28;20123;-65
2022/07/18 05:42:18;;;;;;;7.60;5.22;;;;;;;25.64;66.12;99061.06;5010314;28;20080;-66
2022/07/18 05:44:43;;;;;;;7.53;5.53;;;;;;;25.71;65.54;99055.66;4999372;28;20030;-64
2022/07/18 05:47:09;;;;;;;8.30;5.15;;;;;;;25.77;63.50;99064.56;5018736;28;20025;-64
2022/07/18 05:49:35;;;;;;;7.07;4.93;;;;;;;25.72;63.26;99062.59;5018246;28;20018;-66
2022/07/18 05:52:00;;;;;;;7.57;5.13;;;;;;;25.73;63.60;99066.88;5001101;28;20081;-65
2022/07/18 05:54:26;;;;;;;9.23;5.05;;;;;;;25.60;63.13;99043.94;5016415;28;20045;-65
2022/07/18 05:56:52;;;;;;;6.57;4.95;;;;;;;25.79;63.58;99068.63;5018296;28;20104;-64
2022/07/18 05:59:18;;;;;;;8.57;5.43;;;;;;;25.71;63.61;99077.75;5002364;28;20021;-65
2022/07/18 06:01:44;;;;;;;8.77;5.05;;;;;;;25.86;62.70;99071.13;5015932;28;20121;-64
2022/07/18 06:04:09;;;;;;;8.13;5.28;;;;;;;25.72;63.07;99027.97;5017433;28;20112;-65
2022/07/18 06:06:36;;;;;;;6.97;4.47;;;;;;;25.86;63.84;99058.63;5003738;28;20037;-67
2022/07/18 06:09:01;;;;;;;8.30;5.22;;;;;;;25.89;64.65;99071.50;5055930;28;20144;-64
2022/07/18 06:11:27;;;;;;;6.97;5.40;;;;;;;25.71;64.35;99016.50;5022885;28;20056;-65
2022/07/18 06:13:52;;;;;;;8.27;5.18;;;;;;;25.97;64.94;99061.56;5003733;28;20417;-65
2022/07/18 06:16:18;;;;;;;7.65;5.22;;;;;;;25.99;64.83;99062.13;5003437;28;20037;-64
2022/07/18 06:18:43;;;;;;;8.18;5.15;;;;;;;25.97;65.06;99051.69;5032674;28;20132;-64
2022/07/18 06:21:09;;;;;;;10.10;5.53;;;;;;;26.18;64.65;99060.94;5019813;28;20056;-63
2022/07/18 06:23:35;;;;;;;8.15;5.32;;;;;;;26.30;64.05;99060.09;5004584;28;20110;-64
2022/07/18 06:26:01;;;;;;;9.45;5.72;;;;;;;26.16;63.73;99036.38;5003462;28;20147;-65
2022/07/18 06:28:28;;;;;;;9.40;5.18;;;;;;;26.22;63.64;99038.09;5019283;28;20439;-64
2022/07/18 06:30:53;;;;;;;7.93;5.68;;;;;;;26.47;63.64;99059.09;5001238;28;20026;-66
2022/07/18 06:33:19;;;;;;;8.45;5.55;;;;;;;26.58;64.02;99061.97;5003341;28;20022;-65
2022/07/18 06:35:46;;;;;;;7.53;5.10;;;;;;;26.40;62.71;99068.28;5016646;28;20524;-65
2022/07/18 06:38:12;;;;;;;9.70;5.55;;;;;;;26.46;63.50;99070.81;5001102;28;20028;-65
2022/07/18 06:40:37;;;;;;;7.97;5.25;;;;;;;26.45;63.19;99063.06;5013985;28;20025;-65
2022/07/18 06:43:03;;;;;;;6.82;5.07;;;;;;;26.54;62.14;99069.63;4997872;28;20041;-65
2022/07/18 06:45:28;;;;;;;7.38;5.22;;;;;;;26.61;62.58;99066.84;5036220;28;20036;-65
2022/07/18 06:47:53;;;;;;;7.65;5.40;;;;;;;26.73;60.77;99062.28;5019024;28;20451;-66
2022/07/18 06:50:19;;;;;;;7.03;4.88;;;;;;;26.90;58.67;99069.50;5006061;28;20041;-65
2022/07/18 06:52:44;;;;;;;7.43;5.13;;;;;;;26.72;58.07;99031.28;5017384;28;20033;-65
2022/07/18 06:55:12;;;;;;;6.80;4.88;;;;;;;26.99;58.47;99066.19;5018277;28;20048;-66
2022/07/18 06:57:38;;;;;;;8.45;5.40;;;;;;;26.99;58.29;99071.50;5017467;28;20112;-65
2022/07/18 07:00:05;;;;;;;8.32;4.90;;;;;;;26.78;57.15;99037.56;5002567;28;20029;-66
2022/07/18 07:02:31;;;;;;;7.30;5.10;;;;;;;26.95;56.51;99072.25;5019029;28;20091;-65
2022/07/18 07:04:56;;;;;;;9.93;5.03;;;;;;;26.85;58.72;99071.03;5019655;28;20726;-66
2022/07/18 07:07:21;;;;;;;8.52;5.22;;;;;;;26.75;58.45;99067.38;5002055;28;20599;-64
2022/07/18 07:09:47;;;;;;;6.88;4.78;;;;;;;26.71;59.65;99060.91;4998729;28;20021;-65
2022/07/18 07:12:12;;;;;;;8.00;5.40;;;;;;;26.63;58.69;99062.91;5018785;28;20032;-66
2022/07/18 07:14:38;;;;;;;7.60;4.82;;;;;;;26.63;59.41;99062.91;4996971;28;20033;-66
2022/07/18 07:17:04;;;;;;;7.75;5.13;;;;;;;26.52;60.88;99070.91;5017667;28;20030;-66
2022/07/18 07:19:29;;;;;;;8.23;5.05;;;;;;;26.34;58.82;99058.56;5017470;28;20871;-65
2022/07/18 07:21:55;;;;;;;7.47;4.65;;;;;;;26.04;58.01;99007.09;5016622;28;20108;-69
2022/07/18 07:24:21;;;;;;;8.10;4.82;;;;;;;26.49;57.99;99066.88;5010962;28;20932;-64
2022/07/18 07:26:46;;;;;;;6.20;4.47;;;;;;;26.42;58.37;99059.00;5016018;28;20021;-67
2022/07/18 07:29:12;;;;;;;6.43;4.20;;;;;;;26.45;57.77;99055.06;4997350;28;20381;-64
2022/07/18 07:31:38;;;;;;;7.55;5.15;;;;;;;26.46;57.26;99056.66;5017348;28;20088;-66
2022/07/18 07:34:03;;;;;;;7.05;4.72;;;;;;;26.51;57.43;99050.63;5034381;28;20579;-64
2022/07/18 07:36:28;;;;;;;7.82;5.30;;;;;;;26.28;57.32;99018.50;4996810;28;20121;-66
2022/07/18 07:38:55;;;;;;;9.55;5.25;;;;;;;26.43;57.81;99033.97;4997992;28;20048;-65
2022/07/18 07:41:20;;;;;;;7.45;4.95;;;;;;;26.55;58.99;99043.78;5014756;28;20025;-65
2022/07/18 07:43:46;;;;;;;6.85;5.10;;;;;;;26.71;59.08;99050.22;5017531;28;20064;-65
2022/07/18 07:46:11;;;;;;;7.63;4.35;;;;;;;26.91;57.06;99050.59;5016140;28;20033;-66
2022/07/18 07:48:38;;;;;;;6.78;4.45;;;;;;;27.06;56.96;99050.03;5012804;28;20026;-64
2022/07/18 07:51:03;;;;;;;7.60;4.47;;;;;;;27.02;55.36;99008.88;5013758;28;20037;-65
2022/07/18 07:53:29;;;;;;;9.43;4.65;;;;;;;27.31;55.77;99044.31;5013981;28;20103;-66
2022/07/18 07:55:54;;;;;;;8.63;4.93;;;;;;;27.59;53.84;99042.56;5045709;28;20790;-66
2022/07/18 07:58:20;;;;;;;7.22;4.38;;;;;;;28.01;51.83;99044.78;5016607;28;20701;-66
2022/07/18 08:00:45;;;;;;;7.15;4.47;;;;;;;28.38;50.98;99039.59;5016120;28;20389;-67
2022/07/18 08:03:11;;;;;;;6.95;4.18;;;;;;;28.59;48.61;99034.47;5000503;28;20041;-64
2022/07/18 08:05:45;;;;;;;7.55;4.68;;;;;;;28.89;47.46;99025.91;5014654;28;20056;-65
2022/07/18 08:08:11;;;;;;;6.32;3.92;;;;;;;29.36;46.34;99031.66;5014776;28;20468;-66
2022/07/18 08:10:36;;;;;;;5.88;4.15;;;;;;;29.60;45.16;99032.06;5014938;28;20034;-65
2022/07/18 08:13:02;;;;;;;6.60;3.50;;;;;;;29.84;44.96;99035.16;5018428;28;20021;-66
2022/07/18 08:15:28;;;;;;;7.38;3.90;;;;;;;29.69;44.94;99035.88;5030768;28;20153;-67
2022/07/18 08:17:53;;;;;;;5.70;3.65;;;;;;;29.69;44.93;99033.19;5014007;28;20751;-66
2022/07/18 08:20:19;;;;;;;5.97;3.42;;;;;;;29.77;44.57;99032.72;5001033;28;21232;-66
2022/07/18 08:22:59;;;;;;;7.88;3.70;;;;;;;30.27;43.59;99019.78;5013030;28;20269;-65
2022/07/18 08:25:25;;;;;;;6.85;3.80;;;;;;;30.41;42.89;99031.66;4998446;28;20540;-65
2022/07/18 08:27:51;;;;;;;8.80;4.00;;;;;;;30.08;42.72;98998.00;5050139;28;20052;-66
2022/07/18 08:30:16;;;;;;;7.82;4.28;;;;;;;30.39;42.56;99020.41;5017580;28;20441;-65
2022/07/18 08:32:42;;;;;;;6.97;4.00;;;;;;;30.56;42.87;99025.50;5001791;28;20145;-65
2022/07/18 08:35:08;;;;;;;5.93;3.90;;;;;;;30.72;41.73;99017.47;5016573;28;20040;-65
2022/07/18 08:37:33;;;;;;;6.95;4.15;;;;;;;30.41;42.21;98991.44;4998142;28;20033;-65
2022/07/18 08:39:58;;;;;;;6.68;3.90;;;;;;;30.90;40.60;99016.94;4998286;28;20044;-65
2022/07/18 08:42:26;;;;;;;6.35;4.25;;;;;;;31.38;40.24;99008.63;5015241;28;20026;-66
2022/07/18 08:44:56;;;;;;;6.40;3.95;;;;;;;31.96;38.65;99006.28;5014909;28;20030;-66
2022/07/18 08:47:23;;;;;;;7.20;4.35;;;;;;;31.63;38.33;99009.63;4998250;28;20428;-65
2022/07/18 08:49:49;;;;;;;7.20;4.43;;;;;;;31.23;39.04;99002.19;5000477;28;20414;-66
2022/07/18 08:52:15;;;;;;;7.18;4.60;;;;;;;31.32;40.35;99005.09;5011094;28;20423;-67
2022/07/18 08:54:41;;;;;;;6.93;4.55;;;;;;;31.14;40.86;99011.88;4999904;28;20532;-68
2022/07/18 08:57:07;;;;;;;6.50;4.00;;;;;;;30.93;43.00;99005.69;4994310;28;20029;-67
2022/07/18 08:59:33;;;;;;;6.97;4.13;;;;;;;30.45;42.62;99010.47;5026477;28;20432;-65
2022/07/18 09:01:58;;;;;;;7.03;4.45;;;;;;;30.43;44.01;99000.00;5029818;28;20431;-67
2022/07/18 09:04:34;;;;;;;6.97;4.40;;;;;;;30.14;43.63;98963.97;5014596;28;20018;-66
2022/07/18 09:06:59;;;;;;;10.80;4.18;;;;;;;30.89;42.93;98993.06;5000622;28;20025;-64
2022/07/18 09:09:25;;;;;;;9.95;4.93;;;;;;;31.22;42.36;98989.81;5013187;28;20044;-63
2022/07/18 09:11:51;;;;;;;6.75;4.75;;;;;;;31.59;41.05;98990.56;5013128;28;20018;-65
2022/07/18 09:14:35;;;;;;;9.75;5.20;;;;;;;31.36;41.99;98991.94;4992279;28;20046;-65
2022/07/18 09:17:01;;;;;;;7.40;5.07;;;;;;;31.82;41.31;98959.59;5005984;28;20576;-65
2022/07/18 09:19:27;;;;;;;7.50;5.10;;;;;;;31.89;39.85;98994.22;5012696;28;20030;-65
2022/07/18 09:21:52;;;;;;;9.52;5.15;;;;;;;30.93;41.77;98989.59;5011678;28;20029;-65
2022/07/18 09:24:18;;;;;;;7.18;4.80;;;;;;;31.23;40.42;98983.38;5011389;28;20403;-64
2022/07/18 09:26:45;;;;;;;8.63;5.03;;;;;;;32.22;39.01;98987.38;5013539;28;20034;-65
2022/07/18 09:29:14;;;;;;;7.47;4.60;;;;;;;32.61;37.61;98978.50;5000824;28;20034;-66
2022/07/18 09:31:48;;;;;;;9.40;4.80;;;;;;;32.76;37.87;98986.44;5015212;28;20022;-66
2022/07/18 09:34:13;;;;;;;6.97;4.60;;;;;;;32.62;35.49;98960.47;5000419;28;20045;-67
2022/07/18 09:36:54;;;;;;;7.70;4.97;;;;;;;32.97;34.08;98980.91;5017361;28;20028;-66
2022/07/18 09:39:20;;;;;;;7.30;4.75;;;;;;;33.00;33.85;98955.28;5046477;28;20030;-64
2022/07/18 09:41:46;;;;;;;8.52;5.18;;;;;;;33.35;32.74;98983.81;5003300;28;20025;-65
2022/07/18 09:44:18;;;;;;;7.43;4.85;;;;;;;33.46;33.41;98976.38;5019974;28;20069;-64
2022/07/18 09:47:03;;;;;;;7.97;4.80;;;;;;;32.94;33.70;98941.88;5003443;28;20104;-66
2022/07/18 09:49:30;;;;;;;10.45;5.18;;;;;;;33.38;32.66;98983.22;5018712;28;20388;-64
2022/07/18 09:52:07;;;;;;;8.73;4.88;;;;;;;33.41;33.29;98981.84;5020537;28;20029;-65
2022/07/18 09:54:43;;;;;;;8.52;5.15;;;;;;;33.59;32.74;98978.41;5012668;28;20026;-65
2022/07/18 09:57:09;;;;;;;8.00;4.85;;;;;;;33.50;32.05;98977.44;5002868;28;20150;-64
2022/07/18 09:59:36;;;;;;;8.00;5.10;;;;;;;33.12;32.64;98967.31;5017094;28;20041;-64
2022/07/18 10:02:05;;;;;;;7.35;5.10;;;;;;;32.86;33.25;98971.31;5030964;28;20124;-65
2022/07/18 10:04:30;;;;;;;8.52;5.45;;;;;;;32.60;34.24;98970.72;4998529;28;20365;-65
2022/07/18 10:06:56;;;;;;;8.23;5.13;;;;;;;32.26;34.35;98956.13;4949851;28;20512;-65
2022/07/18 10:09:21;;;;;;;7.93;5.00;;;;;;;31.87;35.07;98969.50;5018068;28;20102;-64
2022/07/18 10:11:47;;;;;;;9.63;5.20;;;;;;;31.68;35.42;98962.03;5014687;28;20470;-65
2022/07/18 10:14:12;;;;;;;8.02;5.40;;;;;;;31.57;36.27;98968.53;4999363;28;20056;-65
2022/07/18 10:16:38;;;;;;;8.82;5.13;;;;;;;31.31;36.33;98935.56;5017477;28;20465;-65
2022/07/18 10:19:04;;;;;;;8.05;5.00;;;;;;;31.21;35.82;98913.03;5013515;28;20032;-64
2022/07/18 10:21:30;;;;;;;8.25;5.55;;;;;;;31.32;36.08;98958.66;5032475;28;20030;-65
2022/07/18 10:23:55;;;;;;;7.60;5.18;;;;;;;31.48;36.06;98965.63;5016850;28;20092;-64
2022/07/18 10:26:23;;;;;;;8.25;5.53;;;;;;;31.42;36.27;98964.00;5030329;28;20034;-63
2022/07/18 10:29:00;;;;;;;7.13;5.22;;;;;;;31.43;36.36;98970.97;5022457;28;20032;-65
2022/07/18 10:31:28;;;;;;;6.97;5.35;;;;;;;31.54;35.50;98953.78;5010797;28;20526;-64
2022/07/18 10:34:09;;;;;;;8.40;5.70;;;;;;;31.46;35.58;98954.31;5015076;28;20029;-65
2022/07/18 10:36:50;;;;;;;9.75;5.70;;;;;;;31.28;36.14;98952.22;5015635;28;20801;-66
2022/07/18 10:39:20;;;;;;;8.50;5.15;;;;;;;31.39;35.52;98948.41;5032443;28;20037;-66
2022/07/18 10:41:45;;;;;;;8.13;5.82;;;;;;;31.16;36.21;98918.41;5016764;28;20391;-66
2022/07/18 10:44:23;;;;;;;7.87;5.43;;;;;;;31.21;36.76;98947.13;5015578;28;20045;-64
2022/07/18 10:47:10;;;;;;;11.57;6.53;;;;;;;31.33;35.13;98938.78;5012672;28;20686;-66
2022/07/18 10:49:47;;;;;;;9.85;5.88;;;;;;;31.19;37.12;98936.66;5033156;28;20060;-65
2022/07/18 10:52:28;;;;;;;7.75;5.53;;;;;;;31.28;36.14;98930.72;5013658;28;20544;-65
2022/07/18 10:55:05;;;;;;;7.40;5.75;;;;;;;31.21;36.67;98931.00;5019388;28;20053;-66
2022/07/18 10:58:14;;;;;;;7.55;5.80;;;;;;;31.18;36.83;98931.56;5014455;28;20037;-66
2022/07/18 11:00:42;;;;;;;8.90;5.70;;;;;;;31.04;36.43;98899.09;4993792;28;20080;-66
2022/07/18 11:03:09;;;;;;;7.55;5.15;;;;;;;31.34;36.15;98921.56;4999211;28;20036;-67
2022/07/18 11:05:38;;;;;;;8.65;5.68;;;;;;;31.32;35.66;98919.16;5001130;28;20029;-67
2022/07/18 11:08:03;;;;;;;;;;;;;;;31.45;35.24;98911.59;5017181;28;20029;-66
2022/07/18 11:10:41;;;;;;;8.80;5.72;;;;;;;31.63;34.63;98916.38;5012132;28;19925;-67
2022/07/18 11:13:25;;;;;;;10.13;5.80;;;;;;;31.57;35.24;98901.38;5017167;28;20087;-67
2022/07/18 11:16:00;;;;;;;7.55;5.72;;;;;;;31.59;36.03;98905.38;5018505;28;20087;-67
2022/07/18 11:18:25;;;;;;;9.15;5.65;;;;;;;31.54;35.55;98899.22;5014008;28;20056;-66
2022/07/18 11:20:52;;;;;;;8.27;5.57;;;;;;;31.55;35.57;98908.91;5014013;28;20025;-67
2022/07/18 11:23:17;;;;;;;9.00;5.82;;;;;;;31.55;35.30;98907.00;4996921;28;20104;-67
2022/07/18 11:25:43;;;;;;;8.38;5.25;;;;;;;31.47;35.83;98901.38;5008432;28;20078;-62
2022/07/18 11:28:09;;;;;;;6.75;5.30;;;;;;;31.24;35.62;98871.38;5010743;28;20122;-62
2022/07/18 11:30:36;;;;;;;7.70;5.22;;;;;;;31.57;36.05;98906.75;4996258;28;20022;-60
2022/07/18 11:33:01;;;;;;;8.65;5.38;;;;;;;31.72;35.41;98897.78;5011635;28;20025;-62
2022/07/18 11:35:27;;;;;;;8.45;5.68;;;;;;;31.39;34.99;98862.47;4994448;28;20150;-62